sensor_id;sensor_type;location;lat;lon;timestamp;P1;durP1;ratioP1;P2;durP2;ratioP2
9559;SDS011;4818;50.860;4.648;2024-01-25T00:01:44;48.13;;;6.80;;
9559;SDS011;4818;50.860;4.648;2024-01-25T00:04:11;44.40;;;5.95;;
9559;SDS011;4818;50.860;4.648;2024-01-25T00:06:37;57.30;;;6.60;;
9559;SDS011;4818;50.860;4.648;2024-01-25T00:16:56;49.65;;;7.63;;
9559;SDS011;4818;50.860;4.648;2024-01-25T00:19:22;47.58;;;7.28;;
9559;SDS011;4818;50.860;4.648;2024-01-25T00:21:48;39.85;;;6.13;;
9559;SDS011;4818;50.860;4.648;2024-01-25T00:24:14;50.65;;;7.28;;
9559;SDS011;4818;50.860;4.648;2024-01-25T00:26:40;49.35;;;6.28;;
9559;SDS011;4818;50.860;4.648;2024-01-25T00:29:07;48.95;;;7.20;;
9559;SDS011;4818;50.860;4.648;2024-01-25T00:31:33;45.83;;;6.72;;
9559;SDS011;4818;50.860;4.648;2024-01-25T00:33:59;61.15;;;8.13;;
9559;SDS011;4818;50.860;4.648;2024-01-25T00:36:26;56.50;;;6.97;;
9559;SDS011;4818;50.860;4.648;2024-01-25T00:38:52;38.70;;;6.45;;
9559;SDS011;4818;50.860;4.648;2024-01-25T00:41:19;52.03;;;8.20;;
9559;SDS011;4818;50.860;4.648;2024-01-25T00:43:45;62.75;;;7.38;;
9559;SDS011;4818;50.860;4.648;2024-01-25T00:46:12;49.03;;;6.70;;
9559;SDS011;4818;50.860;4.648;2024-01-25T00:48:38;50.20;;;7.47;;
9559;SDS011;4818;50.860;4.648;2024-01-25T00:51:08;37.50;;;6.90;;
9559;SDS011;4818;50.860;4.648;2024-01-25T00:53:41;49.50;;;6.32;;
9559;SDS011;4818;50.860;4.648;2024-01-25T00:56:07;46.60;;;6.65;;
9559;SDS011;4818;50.860;4.648;2024-01-25T00:58:34;50.72;;;5.82;;
9559;SDS011;4818;50.860;4.648;2024-01-25T01:01:00;40.33;;;6.18;;
9559;SDS011;4818;50.860;4.648;2024-01-25T01:03:26;36.10;;;4.88;;
9559;SDS011;4818;50.860;4.648;2024-01-25T01:05:53;48.75;;;6.30;;
9559;SDS011;4818;50.860;4.648;2024-01-25T01:08:19;57.58;;;6.15;;
9559;SDS011;4818;50.860;4.648;2024-01-25T01:10:46;43.53;;;6.70;;
9559;SDS011;4818;50.860;4.648;2024-01-25T01:13:13;36.33;;;4.75;;
9559;SDS011;4818;50.860;4.648;2024-01-25T01:15:39;39.90;;;6.15;;
9559;SDS011;4818;50.860;4.648;2024-01-25T01:18:05;46.03;;;6.32;;
9559;SDS011;4818;50.860;4.648;2024-01-25T01:20:31;46.63;;;5.90;;
9559;SDS011;4818;50.860;4.648;2024-01-25T01:22:57;51.40;;;5.72;;
9559;SDS011;4818;50.860;4.648;2024-01-25T01:25:23;50.85;;;6.95;;
9559;SDS011;4818;50.860;4.648;2024-01-25T01:27:50;38.05;;;6.40;;
9559;SDS011;4818;50.860;4.648;2024-01-25T01:30:16;47.28;;;6.25;;
9559;SDS011;4818;50.860;4.648;2024-01-25T01:32:42;51.80;;;6.43;;
9559;SDS011;4818;50.860;4.648;2024-01-25T01:35:09;42.15;;;5.75;;
9559;SDS011;4818;50.860;4.648;2024-01-25T01:37:35;46.10;;;4.95;;
9559;SDS011;4818;50.860;4.648;2024-01-25T01:40:01;54.25;;;7.78;;
9559;SDS011;4818;50.860;4.648;2024-01-25T01:42:28;42.17;;;5.70;;
9559;SDS011;4818;50.860;4.648;2024-01-25T01:44:54;46.30;;;5.90;;
9559;SDS011;4818;50.860;4.648;2024-01-25T01:47:20;49.25;;;6.50;;
9559;SDS011;4818;50.860;4.648;2024-01-25T01:49:46;53.83;;;7.38;;
9559;SDS011;4818;50.860;4.648;2024-01-25T01:52:13;56.53;;;6.57;;
9559;SDS011;4818;50.860;4.648;2024-01-25T01:54:39;51.33;;;6.18;;
9559;SDS011;4818;50.860;4.648;2024-01-25T01:57:06;45.38;;;4.97;;
9559;SDS011;4818;50.860;4.648;2024-01-25T01:59:33;30.60;;;4.15;;
9559;SDS011;4818;50.860;4.648;2024-01-25T02:02:00;39.35;;;5.43;;
9559;SDS011;4818;50.860;4.648;2024-01-25T02:04:26;34.05;;;4.07;;
9559;SDS011;4818;50.860;4.648;2024-01-25T02:06:52;45.38;;;5.63;;
9559;SDS011;4818;50.860;4.648;2024-01-25T02:09:18;45.85;;;6.65;;
9559;SDS011;4818;50.860;4.648;2024-01-25T02:11:44;48.90;;;5.57;;
9559;SDS011;4818;50.860;4.648;2024-01-25T02:14:11;34.63;;;5.60;;
9559;SDS011;4818;50.860;4.648;2024-01-25T02:16:38;35.58;;;6.03;;
9559;SDS011;4818;50.860;4.648;2024-01-25T02:19:04;49.47;;;5.22;;
9559;SDS011;4818;50.860;4.648;2024-01-25T02:21:30;46.05;;;4.95;;
9559;SDS011;4818;50.860;4.648;2024-01-25T02:23:57;41.15;;;5.10;;
9559;SDS011;4818;50.860;4.648;2024-01-25T02:26:23;39.88;;;5.40;;
9559;SDS011;4818;50.860;4.648;2024-01-25T02:28:49;31.48;;;3.97;;
9559;SDS011;4818;50.860;4.648;2024-01-25T02:31:15;33.08;;;4.40;;
9559;SDS011;4818;50.860;4.648;2024-01-25T02:33:41;54.20;;;5.38;;
9559;SDS011;4818;50.860;4.648;2024-01-25T02:36:08;51.83;;;7.80;;
9559;SDS011;4818;50.860;4.648;2024-01-25T02:38:34;32.80;;;5.03;;
9559;SDS011;4818;50.860;4.648;2024-01-25T02:41:00;41.20;;;6.30;;
9559;SDS011;4818;50.860;4.648;2024-01-25T02:43:26;38.22;;;5.40;;
9559;SDS011;4818;50.860;4.648;2024-01-25T02:45:52;34.97;;;4.88;;
9559;SDS011;4818;50.860;4.648;2024-01-25T02:48:19;36.05;;;5.93;;
9559;SDS011;4818;50.860;4.648;2024-01-25T02:50:45;39.38;;;5.22;;
9559;SDS011;4818;50.860;4.648;2024-01-25T02:53:11;38.95;;;5.50;;
9559;SDS011;4818;50.860;4.648;2024-01-25T02:55:37;22.58;;;3.30;;
9559;SDS011;4818;50.860;4.648;2024-01-25T02:58:04;34.25;;;4.07;;
9559;SDS011;4818;50.860;4.648;2024-01-25T03:00:30;34.47;;;6.20;;
9559;SDS011;4818;50.860;4.648;2024-01-25T03:02:56;37.53;;;4.10;;
9559;SDS011;4818;50.860;4.648;2024-01-25T03:05:23;31.15;;;3.63;;
9559;SDS011;4818;50.860;4.648;2024-01-25T03:07:49;27.52;;;5.70;;
9559;SDS011;4818;50.860;4.648;2024-01-25T03:10:15;34.55;;;4.40;;
9559;SDS011;4818;50.860;4.648;2024-01-25T03:12:42;36.63;;;4.53;;
9559;SDS011;4818;50.860;4.648;2024-01-25T03:15:09;43.15;;;5.60;;
9559;SDS011;4818;50.860;4.648;2024-01-25T03:17:36;37.90;;;4.97;;
9559;SDS011;4818;50.860;4.648;2024-01-25T03:20:02;34.92;;;4.68;;
9559;SDS011;4818;50.860;4.648;2024-01-25T03:22:28;34.20;;;4.00;;
9559;SDS011;4818;50.860;4.648;2024-01-25T03:24:55;43.05;;;4.22;;
9559;SDS011;4818;50.860;4.648;2024-01-25T03:27:21;32.72;;;4.55;;
9559;SDS011;4818;50.860;4.648;2024-01-25T03:29:47;46.88;;;5.32;;
9559;SDS011;4818;50.860;4.648;2024-01-25T03:32:13;29.33;;;4.45;;
9559;SDS011;4818;50.860;4.648;2024-01-25T03:34:40;37.70;;;5.55;;
9559;SDS011;4818;50.860;4.648;2024-01-25T03:37:06;35.70;;;4.38;;
9559;SDS011;4818;50.860;4.648;2024-01-25T03:39:33;34.08;;;4.13;;
9559;SDS011;4818;50.860;4.648;2024-01-25T03:41:59;27.02;;;3.08;;
9559;SDS011;4818;50.860;4.648;2024-01-25T03:44:25;28.83;;;3.55;;
9559;SDS011;4818;50.860;4.648;2024-01-25T03:46:51;28.23;;;3.40;;
9559;SDS011;4818;50.860;4.648;2024-01-25T03:49:18;25.85;;;2.83;;
9559;SDS011;4818;50.860;4.648;2024-01-25T03:51:44;35.08;;;4.00;;
9559;SDS011;4818;50.860;4.648;2024-01-25T03:54:11;30.35;;;4.22;;
9559;SDS011;4818;50.860;4.648;2024-01-25T03:56:37;26.33;;;3.70;;
9559;SDS011;4818;50.860;4.648;2024-01-25T03:59:04;45.58;;;4.60;;
9559;SDS011;4818;50.860;4.648;2024-01-25T04:01:40;29.02;;;3.72;;
9559;SDS011;4818;50.860;4.648;2024-01-25T04:04:06;26.80;;;3.15;;
9559;SDS011;4818;50.860;4.648;2024-01-25T04:06:37;33.47;;;3.40;;
9559;SDS011;4818;50.860;4.648;2024-01-25T04:09:03;27.55;;;4.68;;
9559;SDS011;4818;50.860;4.648;2024-01-25T04:11:30;46.85;;;5.65;;
9559;SDS011;4818;50.860;4.648;2024-01-25T04:13:56;36.75;;;6.07;;
9559;SDS011;4818;50.860;4.648;2024-01-25T04:16:23;21.20;;;3.97;;
9559;SDS011;4818;50.860;4.648;2024-01-25T04:18:49;33.67;;;5.20;;
9559;SDS011;4818;50.860;4.648;2024-01-25T04:21:15;42.10;;;5.20;;
9559;SDS011;4818;50.860;4.648;2024-01-25T04:23:41;34.38;;;4.32;;
9559;SDS011;4818;50.860;4.648;2024-01-25T04:26:07;26.65;;;3.22;;
9559;SDS011;4818;50.860;4.648;2024-01-25T04:28:34;32.22;;;3.40;;
9559;SDS011;4818;50.860;4.648;2024-01-25T04:31:01;30.90;;;4.60;;
9559;SDS011;4818;50.860;4.648;2024-01-25T04:33:28;18.35;;;3.55;;
9559;SDS011;4818;50.860;4.648;2024-01-25T04:35:55;40.30;;;4.28;;
9559;SDS011;4818;50.860;4.648;2024-01-25T04:38:21;27.05;;;3.47;;
9559;SDS011;4818;50.860;4.648;2024-01-25T04:40:47;20.85;;;3.00;;
9559;SDS011;4818;50.860;4.648;2024-01-25T04:43:14;18.50;;;3.47;;
9559;SDS011;4818;50.860;4.648;2024-01-25T04:45:40;27.10;;;3.83;;
9559;SDS011;4818;50.860;4.648;2024-01-25T04:48:06;28.25;;;4.07;;
9559;SDS011;4818;50.860;4.648;2024-01-25T04:50:32;33.35;;;2.88;;
9559;SDS011;4818;50.860;4.648;2024-01-25T04:53:01;35.20;;;3.97;;
9559;SDS011;4818;50.860;4.648;2024-01-25T04:55:27;26.95;;;4.00;;
9559;SDS011;4818;50.860;4.648;2024-01-25T04:57:53;39.15;;;5.53;;
9559;SDS011;4818;50.860;4.648;2024-01-25T05:00:21;27.05;;;4.72;;
9559;SDS011;4818;50.860;4.648;2024-01-25T05:02:47;32.60;;;2.95;;
9559;SDS011;4818;50.860;4.648;2024-01-25T05:05:14;21.85;;;2.78;;
9559;SDS011;4818;50.860;4.648;2024-01-25T05:07:40;29.42;;;3.72;;
9559;SDS011;4818;50.860;4.648;2024-01-25T05:10:06;41.83;;;4.05;;
9559;SDS011;4818;50.860;4.648;2024-01-25T05:12:33;39.75;;;4.50;;
9559;SDS011;4818;50.860;4.648;2024-01-25T05:14:59;26.30;;;3.78;;
9559;SDS011;4818;50.860;4.648;2024-01-25T05:17:25;21.58;;;3.80;;
9559;SDS011;4818;50.860;4.648;2024-01-25T05:19:52;26.23;;;3.38;;
9559;SDS011;4818;50.860;4.648;2024-01-25T05:22:18;39.65;;;3.72;;
9559;SDS011;4818;50.860;4.648;2024-01-25T05:24:47;27.60;;;3.90;;
9559;SDS011;4818;50.860;4.648;2024-01-25T05:27:13;25.55;;;3.10;;
9559;SDS011;4818;50.860;4.648;2024-01-25T05:29:39;30.63;;;4.10;;
9559;SDS011;4818;50.860;4.648;2024-01-25T05:32:05;23.20;;;3.70;;
9559;SDS011;4818;50.860;4.648;2024-01-25T05:34:32;32.45;;;4.15;;
9559;SDS011;4818;50.860;4.648;2024-01-25T05:36:58;31.17;;;3.63;;
9559;SDS011;4818;50.860;4.648;2024-01-25T05:39:25;31.40;;;2.95;;
9559;SDS011;4818;50.860;4.648;2024-01-25T05:41:51;33.08;;;3.58;;
9559;SDS011;4818;50.860;4.648;2024-01-25T05:44:17;26.90;;;3.38;;
9559;SDS011;4818;50.860;4.648;2024-01-25T05:46:43;28.30;;;4.43;;
9559;SDS011;4818;50.860;4.648;2024-01-25T05:49:09;29.33;;;3.10;;
9559;SDS011;4818;50.860;4.648;2024-01-25T05:51:36;28.10;;;4.40;;
9559;SDS011;4818;50.860;4.648;2024-01-25T05:54:02;29.48;;;3.55;;
9559;SDS011;4818;50.860;4.648;2024-01-25T05:56:28;29.63;;;4.88;;
9559;SDS011;4818;50.860;4.648;2024-01-25T05:58:54;25.52;;;4.10;;
9559;SDS011;4818;50.860;4.648;2024-01-25T06:01:21;41.90;;;5.07;;
9559;SDS011;4818;50.860;4.648;2024-01-25T06:03:47;28.45;;;3.72;;
9559;SDS011;4818;50.860;4.648;2024-01-25T06:06:13;20.83;;;4.15;;
9559;SDS011;4818;50.860;4.648;2024-01-25T06:08:39;37.17;;;4.22;;
9559;SDS011;4818;50.860;4.648;2024-01-25T06:11:05;26.73;;;3.58;;
9559;SDS011;4818;50.860;4.648;2024-01-25T06:13:32;28.45;;;3.45;;
9559;SDS011;4818;50.860;4.648;2024-01-25T06:15:58;34.03;;;4.07;;
9559;SDS011;4818;50.860;4.648;2024-01-25T06:18:25;27.13;;;3.60;;
9559;SDS011;4818;50.860;4.648;2024-01-25T06:20:51;34.55;;;4.40;;
9559;SDS011;4818;50.860;4.648;2024-01-25T06:23:17;37.25;;;4.53;;
9559;SDS011;4818;50.860;4.648;2024-01-25T06:25:44;30.50;;;4.38;;
9559;SDS011;4818;50.860;4.648;2024-01-25T06:28:10;23.98;;;4.25;;
9559;SDS011;4818;50.860;4.648;2024-01-25T06:30:37;26.58;;;3.75;;
9559;SDS011;4818;50.860;4.648;2024-01-25T06:33:04;17.15;;;2.80;;
9559;SDS011;4818;50.860;4.648;2024-01-25T06:35:30;23.90;;;3.58;;
9559;SDS011;4818;50.860;4.648;2024-01-25T06:37:56;37.08;;;5.28;;
9559;SDS011;4818;50.860;4.648;2024-01-25T06:40:23;39.17;;;4.53;;
9559;SDS011;4818;50.860;4.648;2024-01-25T06:42:49;29.08;;;4.35;;
9559;SDS011;4818;50.860;4.648;2024-01-25T06:45:15;17.45;;;3.15;;
9559;SDS011;4818;50.860;4.648;2024-01-25T06:47:42;31.15;;;4.57;;
9559;SDS011;4818;50.860;4.648;2024-01-25T06:50:08;39.28;;;5.22;;
9559;SDS011;4818;50.860;4.648;2024-01-25T06:52:35;27.85;;;2.97;;
9559;SDS011;4818;50.860;4.648;2024-01-25T06:55:01;36.42;;;4.57;;
9559;SDS011;4818;50.860;4.648;2024-01-25T06:57:27;32.92;;;5.40;;
9559;SDS011;4818;50.860;4.648;2024-01-25T06:59:53;34.20;;;4.93;;
9559;SDS011;4818;50.860;4.648;2024-01-25T07:02:20;32.30;;;5.28;;
9559;SDS011;4818;50.860;4.648;2024-01-25T07:04:46;38.35;;;6.25;;
9559;SDS011;4818;50.860;4.648;2024-01-25T07:07:12;34.80;;;5.60;;
9559;SDS011;4818;50.860;4.648;2024-01-25T07:09:39;39.90;;;7.22;;
9559;SDS011;4818;50.860;4.648;2024-01-25T07:12:05;39.58;;;7.60;;
9559;SDS011;4818;50.860;4.648;2024-01-25T07:14:31;52.28;;;8.27;;
9559;SDS011;4818;50.860;4.648;2024-01-25T07:16:57;25.55;;;6.65;;
9559;SDS011;4818;50.860;4.648;2024-01-25T07:19:23;47.65;;;7.63;;
9559;SDS011;4818;50.860;4.648;2024-01-25T07:21:50;36.17;;;6.32;;
9559;SDS011;4818;50.860;4.648;2024-01-25T07:24:16;24.40;;;6.82;;
9559;SDS011;4818;50.860;4.648;2024-01-25T07:26:42;47.50;;;6.88;;
9559;SDS011;4818;50.860;4.648;2024-01-25T07:29:08;24.95;;;6.75;;
9559;SDS011;4818;50.860;4.648;2024-01-25T07:31:35;30.73;;;7.90;;
9559;SDS011;4818;50.860;4.648;2024-01-25T07:34:01;44.10;;;7.93;;
9559;SDS011;4818;50.860;4.648;2024-01-25T07:36:27;29.65;;;6.38;;
9559;SDS011;4818;50.860;4.648;2024-01-25T07:38:53;64.75;;;9.57;;
9559;SDS011;4818;50.860;4.648;2024-01-25T07:41:19;30.70;;;7.47;;
9559;SDS011;4818;50.860;4.648;2024-01-25T07:43:46;43.03;;;9.95;;
9559;SDS011;4818;50.860;4.648;2024-01-25T07:46:12;32.28;;;9.60;;
9559;SDS011;4818;50.860;4.648;2024-01-25T07:48:40;30.90;;;8.50;;
9559;SDS011;4818;50.860;4.648;2024-01-25T07:51:13;28.20;;;8.13;;
9559;SDS011;4818;50.860;4.648;2024-01-25T07:53:39;29.35;;;9.23;;
9559;SDS011;4818;50.860;4.648;2024-01-25T07:56:08;30.77;;;9.18;;
9559;SDS011;4818;50.860;4.648;2024-01-25T07:58:36;33.33;;;8.25;;
9559;SDS011;4818;50.860;4.648;2024-01-25T08:01:03;41.05;;;9.45;;
9559;SDS011;4818;50.860;4.648;2024-01-25T08:03:30;21.00;;;6.85;;
9559;SDS011;4818;50.860;4.648;2024-01-25T08:05:56;25.45;;;7.05;;
9559;SDS011;4818;50.860;4.648;2024-01-25T08:08:22;36.67;;;7.82;;
9559;SDS011;4818;50.860;4.648;2024-01-25T08:10:48;44.55;;;9.52;;
9559;SDS011;4818;50.860;4.648;2024-01-25T08:13:14;29.27;;;8.63;;
9559;SDS011;4818;50.860;4.648;2024-01-25T08:15:41;32.15;;;8.63;;
9559;SDS011;4818;50.860;4.648;2024-01-25T08:18:07;28.33;;;8.60;;
9559;SDS011;4818;50.860;4.648;2024-01-25T08:20:36;27.38;;;9.32;;
9559;SDS011;4818;50.860;4.648;2024-01-25T08:23:02;26.33;;;8.07;;
9559;SDS011;4818;50.860;4.648;2024-01-25T08:25:29;23.35;;;8.05;;
9559;SDS011;4818;50.860;4.648;2024-01-25T08:27:55;54.55;;;10.75;;
9559;SDS011;4818;50.860;4.648;2024-01-25T08:30:22;44.50;;;9.90;;
9559;SDS011;4818;50.860;4.648;2024-01-25T08:32:48;33.25;;;9.57;;
9559;SDS011;4818;50.860;4.648;2024-01-25T08:35:17;45.75;;;10.63;;
9559;SDS011;4818;50.860;4.648;2024-01-25T08:37:43;42.40;;;8.50;;
9559;SDS011;4818;50.860;4.648;2024-01-25T08:40:10;29.90;;;9.93;;
9559;SDS011;4818;50.860;4.648;2024-01-25T08:42:37;51.40;;;11.13;;
9559;SDS011;4818;50.860;4.648;2024-01-25T08:45:04;54.38;;;10.23;;
9559;SDS011;4818;50.860;4.648;2024-01-25T08:47:34;63.05;;;11.82;;
9559;SDS011;4818;50.860;4.648;2024-01-25T08:50:01;36.00;;;10.38;;
9559;SDS011;4818;50.860;4.648;2024-01-25T08:52:28;28.02;;;9.95;;
9559;SDS011;4818;50.860;4.648;2024-01-25T08:54:55;44.13;;;10.93;;
9559;SDS011;4818;50.860;4.648;2024-01-25T08:57:21;41.88;;;9.77;;
9559;SDS011;4818;50.860;4.648;2024-01-25T08:59:47;26.88;;;8.93;;
9559;SDS011;4818;50.860;4.648;2024-01-25T09:02:14;24.38;;;9.52;;
9559;SDS011;4818;50.860;4.648;2024-01-25T09:04:40;27.50;;;9.48;;
9559;SDS011;4818;50.860;4.648;2024-01-25T09:07:08;26.45;;;9.70;;
9559;SDS011;4818;50.860;4.648;2024-01-25T09:09:34;38.75;;;9.90;;
9559;SDS011;4818;50.860;4.648;2024-01-25T09:12:00;30.40;;;9.82;;
9559;SDS011;4818;50.860;4.648;2024-01-25T09:14:27;44.15;;;11.77;;
9559;SDS011;4818;50.860;4.648;2024-01-25T09:16:53;23.73;;;11.38;;
9559;SDS011;4818;50.860;4.648;2024-01-25T09:19:19;30.10;;;11.35;;
9559;SDS011;4818;50.860;4.648;2024-01-25T09:21:45;35.08;;;12.15;;
9559;SDS011;4818;50.860;4.648;2024-01-25T09:24:12;36.00;;;10.93;;
9559;SDS011;4818;50.860;4.648;2024-01-25T09:26:39;56.90;;;12.68;;
9559;SDS011;4818;50.860;4.648;2024-01-25T09:29:06;28.80;;;10.68;;
9559;SDS011;4818;50.860;4.648;2024-01-25T09:31:32;29.77;;;9.95;;
9559;SDS011;4818;50.860;4.648;2024-01-25T09:33:59;29.20;;;10.50;;
9559;SDS011;4818;50.860;4.648;2024-01-25T09:36:25;30.25;;;10.68;;
9559;SDS011;4818;50.860;4.648;2024-01-25T09:38:51;33.13;;;10.23;;
9559;SDS011;4818;50.860;4.648;2024-01-25T09:41:17;27.33;;;9.98;;
9559;SDS011;4818;50.860;4.648;2024-01-25T09:43:45;25.63;;;9.73;;
9559;SDS011;4818;50.860;4.648;2024-01-25T09:46:12;31.35;;;8.95;;
9559;SDS011;4818;50.860;4.648;2024-01-25T09:48:40;36.58;;;10.27;;
9559;SDS011;4818;50.860;4.648;2024-01-25T09:51:08;38.05;;;10.48;;
9559;SDS011;4818;50.860;4.648;2024-01-25T09:53:35;23.52;;;9.25;;
9559;SDS011;4818;50.860;4.648;2024-01-25T09:56:10;31.85;;;9.65;;
9559;SDS011;4818;50.860;4.648;2024-01-25T09:58:43;32.65;;;9.00;;
9559;SDS011;4818;50.860;4.648;2024-01-25T10:01:13;31.02;;;9.52;;
9559;SDS011;4818;50.860;4.648;2024-01-25T10:03:45;26.67;;;9.85;;
9559;SDS011;4818;50.860;4.648;2024-01-25T10:06:12;30.17;;;9.45;;
9559;SDS011;4818;50.860;4.648;2024-01-25T10:08:39;24.73;;;9.80;;
9559;SDS011;4818;50.860;4.648;2024-01-25T10:11:05;32.80;;;10.60;;
9559;SDS011;4818;50.860;4.648;2024-01-25T10:13:33;27.75;;;10.88;;
9559;SDS011;4818;50.860;4.648;2024-01-25T10:16:05;27.65;;;10.90;;
9559;SDS011;4818;50.860;4.648;2024-01-25T10:18:32;28.73;;;10.45;;
9559;SDS011;4818;50.860;4.648;2024-01-25T10:20:58;27.85;;;11.07;;
9559;SDS011;4818;50.860;4.648;2024-01-25T10:23:25;32.95;;;12.82;;
9559;SDS011;4818;50.860;4.648;2024-01-25T10:25:51;34.25;;;10.60;;
9559;SDS011;4818;50.860;4.648;2024-01-25T10:28:17;35.78;;;11.20;;
9559;SDS011;4818;50.860;4.648;2024-01-25T10:30:44;35.55;;;12.20;;
9559;SDS011;4818;50.860;4.648;2024-01-25T10:33:13;32.78;;;11.27;;
9559;SDS011;4818;50.860;4.648;2024-01-25T10:35:39;39.35;;;12.15;;
9559;SDS011;4818;50.860;4.648;2024-01-25T10:38:06;27.85;;;10.65;;
9559;SDS011;4818;50.860;4.648;2024-01-25T10:40:33;33.20;;;10.82;;
9559;SDS011;4818;50.860;4.648;2024-01-25T10:42:59;38.58;;;12.55;;
9559;SDS011;4818;50.860;4.648;2024-01-25T10:45:25;33.55;;;11.60;;
9559;SDS011;4818;50.860;4.648;2024-01-25T10:47:51;36.38;;;11.85;;
9559;SDS011;4818;50.860;4.648;2024-01-25T10:50:18;44.30;;;13.25;;
9559;SDS011;4818;50.860;4.648;2024-01-25T10:52:44;31.80;;;11.00;;
9559;SDS011;4818;50.860;4.648;2024-01-25T10:55:10;38.17;;;13.35;;
9559;SDS011;4818;50.860;4.648;2024-01-25T10:57:38;46.60;;;12.18;;
9559;SDS011;4818;50.860;4.648;2024-01-25T11:00:05;40.10;;;13.20;;
9559;SDS011;4818;50.860;4.648;2024-01-25T11:02:34;49.92;;;13.70;;
9559;SDS011;4818;50.860;4.648;2024-01-25T11:05:00;44.70;;;13.27;;
9559;SDS011;4818;50.860;4.648;2024-01-25T11:07:28;43.20;;;12.40;;
9559;SDS011;4818;50.860;4.648;2024-01-25T11:09:54;42.20;;;13.52;;
9559;SDS011;4818;50.860;4.648;2024-01-25T11:12:21;43.60;;;12.45;;
9559;SDS011;4818;50.860;4.648;2024-01-25T11:14:54;50.17;;;12.68;;
9559;SDS011;4818;50.860;4.648;2024-01-25T11:17:21;56.75;;;13.95;;
9559;SDS011;4818;50.860;4.648;2024-01-25T11:19:49;39.95;;;12.43;;
9559;SDS011;4818;50.860;4.648;2024-01-25T11:22:15;40.22;;;12.27;;
9559;SDS011;4818;50.860;4.648;2024-01-25T11:24:42;49.22;;;12.70;;
9559;SDS011;4818;50.860;4.648;2024-01-25T11:27:09;54.72;;;14.43;;
9559;SDS011;4818;50.860;4.648;2024-01-25T11:29:38;44.80;;;12.05;;
9559;SDS011;4818;50.860;4.648;2024-01-25T11:32:05;48.45;;;14.30;;
9559;SDS011;4818;50.860;4.648;2024-01-25T11:34:31;40.97;;;14.02;;
9559;SDS011;4818;50.860;4.648;2024-01-25T11:36:57;44.50;;;12.57;;
9559;SDS011;4818;50.860;4.648;2024-01-25T11:39:24;37.00;;;11.60;;
9559;SDS011;4818;50.860;4.648;2024-01-25T11:41:51;43.70;;;13.32;;
9559;SDS011;4818;50.860;4.648;2024-01-25T11:44:17;45.08;;;13.38;;
9559;SDS011;4818;50.860;4.648;2024-01-25T11:46:43;42.33;;;13.85;;
9559;SDS011;4818;50.860;4.648;2024-01-25T11:49:10;48.42;;;12.52;;
9559;SDS011;4818;50.860;4.648;2024-01-25T11:51:36;39.47;;;12.63;;
9559;SDS011;4818;50.860;4.648;2024-01-25T11:54:02;34.08;;;11.38;;
9559;SDS011;4818;50.860;4.648;2024-01-25T11:56:33;35.05;;;11.65;;
9559;SDS011;4818;50.860;4.648;2024-01-25T11:59:00;31.67;;;9.55;;
9559;SDS011;4818;50.860;4.648;2024-01-25T12:01:27;31.58;;;10.98;;
9559;SDS011;4818;50.860;4.648;2024-01-25T12:03:54;37.22;;;11.40;;
9559;SDS011;4818;50.860;4.648;2024-01-25T12:06:20;40.15;;;12.25;;
9559;SDS011;4818;50.860;4.648;2024-01-25T12:08:47;47.20;;;10.50;;
9559;SDS011;4818;50.860;4.648;2024-01-25T12:11:13;33.13;;;10.35;;
9559;SDS011;4818;50.860;4.648;2024-01-25T12:13:40;42.67;;;11.48;;
9559;SDS011;4818;50.860;4.648;2024-01-25T12:16:07;35.55;;;10.57;;
9559;SDS011;4818;50.860;4.648;2024-01-25T12:18:33;38.47;;;10.38;;
9559;SDS011;4818;50.860;4.648;2024-01-25T12:21:03;37.88;;;10.77;;
9559;SDS011;4818;50.860;4.648;2024-01-25T12:23:30;31.05;;;9.55;;
9559;SDS011;4818;50.860;4.648;2024-01-25T12:25:58;43.08;;;12.70;;
9559;SDS011;4818;50.860;4.648;2024-01-25T12:28:28;31.45;;;10.50;;
9559;SDS011;4818;50.860;4.648;2024-01-25T12:31:05;38.08;;;9.38;;
9559;SDS011;4818;50.860;4.648;2024-01-25T12:33:31;26.20;;;10.10;;
9559;SDS011;4818;50.860;4.648;2024-01-25T12:35:58;36.25;;;10.80;;
9559;SDS011;4818;50.860;4.648;2024-01-25T12:38:25;39.33;;;10.60;;
9559;SDS011;4818;50.860;4.648;2024-01-25T12:40:51;35.30;;;10.40;;
9559;SDS011;4818;50.860;4.648;2024-01-25T12:43:18;36.72;;;11.90;;
9559;SDS011;4818;50.860;4.648;2024-01-25T12:45:47;34.42;;;10.70;;
9559;SDS011;4818;50.860;4.648;2024-01-25T12:48:13;37.42;;;10.90;;
9559;SDS011;4818;50.860;4.648;2024-01-25T12:50:39;37.78;;;10.73;;
9559;SDS011;4818;50.860;4.648;2024-01-25T12:53:05;35.45;;;11.10;;
9559;SDS011;4818;50.860;4.648;2024-01-25T12:55:32;38.90;;;12.23;;
9559;SDS011;4818;50.860;4.648;2024-01-25T12:57:59;43.05;;;11.20;;
9559;SDS011;4818;50.860;4.648;2024-01-25T13:00:26;49.03;;;13.60;;
9559;SDS011;4818;50.860;4.648;2024-01-25T13:02:52;43.55;;;11.65;;
9559;SDS011;4818;50.860;4.648;2024-01-25T13:05:19;42.67;;;12.35;;
9559;SDS011;4818;50.860;4.648;2024-01-25T13:07:46;43.10;;;13.18;;
9559;SDS011;4818;50.860;4.648;2024-01-25T13:10:13;36.13;;;12.25;;
9559;SDS011;4818;50.860;4.648;2024-01-25T13:12:39;37.75;;;11.73;;
9559;SDS011;4818;50.860;4.648;2024-01-25T13:15:06;39.72;;;12.70;;
9559;SDS011;4818;50.860;4.648;2024-01-25T13:17:35;36.10;;;11.77;;
9559;SDS011;4818;50.860;4.648;2024-01-25T13:20:05;35.20;;;12.15;;
9559;SDS011;4818;50.860;4.648;2024-01-25T13:22:32;41.72;;;12.45;;
9559;SDS011;4818;50.860;4.648;2024-01-25T13:25:02;32.53;;;10.90;;
9559;SDS011;4818;50.860;4.648;2024-01-25T13:27:29;34.17;;;11.35;;
9559;SDS011;4818;50.860;4.648;2024-01-25T13:29:55;32.58;;;11.25;;
9559;SDS011;4818;50.860;4.648;2024-01-25T13:32:22;36.85;;;11.18;;
9559;SDS011;4818;50.860;4.648;2024-01-25T13:34:51;34.42;;;11.07;;
9559;SDS011;4818;50.860;4.648;2024-01-25T13:37:18;38.50;;;11.85;;
9559;SDS011;4818;50.860;4.648;2024-01-25T13:39:44;31.70;;;12.32;;
9559;SDS011;4818;50.860;4.648;2024-01-25T13:42:10;34.55;;;11.00;;
9559;SDS011;4818;50.860;4.648;2024-01-25T13:44:36;29.38;;;10.60;;
9559;SDS011;4818;50.860;4.648;2024-01-25T13:47:03;25.80;;;10.30;;
9559;SDS011;4818;50.860;4.648;2024-01-25T13:49:30;34.83;;;10.68;;
9559;SDS011;4818;50.860;4.648;2024-01-25T13:51:56;27.70;;;9.85;;
9559;SDS011;4818;50.860;4.648;2024-01-25T13:54:22;23.83;;;8.85;;
9559;SDS011;4818;50.860;4.648;2024-01-25T13:56:49;17.23;;;7.55;;
9559;SDS011;4818;50.860;4.648;2024-01-25T13:59:15;21.80;;;8.57;;
9559;SDS011;4818;50.860;4.648;2024-01-25T14:01:41;25.45;;;9.35;;
9559;SDS011;4818;50.860;4.648;2024-01-25T14:04:07;18.65;;;9.23;;
9559;SDS011;4818;50.860;4.648;2024-01-25T14:06:34;24.33;;;7.95;;
9559;SDS011;4818;50.860;4.648;2024-01-25T14:09:00;21.23;;;7.05;;
9559;SDS011;4818;50.860;4.648;2024-01-25T14:11:26;19.70;;;7.38;;
9559;SDS011;4818;50.860;4.648;2024-01-25T14:13:53;13.07;;;6.60;;
9559;SDS011;4818;50.860;4.648;2024-01-25T14:16:20;14.38;;;5.88;;
9559;SDS011;4818;50.860;4.648;2024-01-25T14:18:46;19.67;;;6.20;;
9559;SDS011;4818;50.860;4.648;2024-01-25T14:21:12;19.77;;;5.65;;
9559;SDS011;4818;50.860;4.648;2024-01-25T14:23:38;14.45;;;4.65;;
9559;SDS011;4818;50.860;4.648;2024-01-25T14:26:05;17.15;;;5.07;;
9559;SDS011;4818;50.860;4.648;2024-01-25T14:28:31;9.85;;;4.35;;
9559;SDS011;4818;50.860;4.648;2024-01-25T14:30:57;10.93;;;4.13;;
9559;SDS011;4818;50.860;4.648;2024-01-25T14:33:23;13.75;;;3.53;;
9559;SDS011;4818;50.860;4.648;2024-01-25T14:35:49;12.07;;;3.58;;
9559;SDS011;4818;50.860;4.648;2024-01-25T14:38:16;8.60;;;2.50;;
9559;SDS011;4818;50.860;4.648;2024-01-25T14:40:42;7.90;;;3.35;;
9559;SDS011;4818;50.860;4.648;2024-01-25T14:43:08;15.02;;;3.65;;
9559;SDS011;4818;50.860;4.648;2024-01-25T14:45:35;7.75;;;4.28;;
9559;SDS011;4818;50.860;4.648;2024-01-25T14:48:03;9.73;;;4.22;;
9559;SDS011;4818;50.860;4.648;2024-01-25T14:50:30;10.32;;;3.30;;
9559;SDS011;4818;50.860;4.648;2024-01-25T14:52:58;10.48;;;3.75;;
9559;SDS011;4818;50.860;4.648;2024-01-25T14:55:24;10.15;;;3.95;;
9559;SDS011;4818;50.860;4.648;2024-01-25T14:57:50;17.17;;;4.57;;
9559;SDS011;4818;50.860;4.648;2024-01-25T15:00:17;12.18;;;4.47;;
9559;SDS011;4818;50.860;4.648;2024-01-25T15:02:47;10.77;;;3.70;;